createdAt,value
2018-07-31T00:00:22.163Z,21.91
2018-07-31T00:01:25.338Z,21.90
2018-07-31T00:02:28.607Z,21.90
2018-07-31T00:03:31.692Z,21.71
2018-07-31T00:04:36.345Z,21.63
2018-07-31T00:05:40.487Z,21.56
2018-07-31T00:06:43.843Z,21.51
2018-07-31T00:07:47.424Z,21.45
2018-07-31T00:08:50.491Z,21.54
2018-07-31T00:09:53.552Z,21.65
2018-07-31T00:10:56.825Z,21.78
2018-07-31T00:12:00.345Z,21.75
2018-07-31T00:13:03.274Z,21.87
2018-07-31T00:14:06.240Z,21.96
2018-07-31T00:15:11.279Z,21.97
2018-07-31T00:16:15.193Z,22.02
2018-07-31T00:17:19.095Z,22.14
2018-07-31T00:18:23.072Z,22.07
2018-07-31T00:19:25.996Z,22.04
2018-07-31T00:20:29.753Z,22.05
2018-07-31T00:21:33.114Z,22.04
2018-07-31T00:22:36.093Z,21.95
2018-07-31T00:23:39.495Z,21.99
2018-07-31T00:24:43.233Z,21.96
2018-07-31T00:25:46.710Z,21.95
2018-07-31T00:26:50.585Z,21.93
2018-07-31T00:27:53.778Z,21.75
2018-07-31T00:28:57.026Z,21.59
2018-07-31T00:30:00.390Z,21.59
2018-07-31T00:31:04.027Z,21.61
2018-07-31T00:32:06.980Z,21.60
2018-07-31T00:33:09.984Z,21.47
2018-07-31T00:34:13.665Z,21.37
2018-07-31T00:35:16.623Z,21.23
2018-07-31T00:36:21.097Z,21.19
2018-07-31T00:37:24.203Z,21.08
2018-07-31T00:38:27.181Z,21.10
2018-07-31T00:39:30.151Z,21.10
2018-07-31T00:40:33.101Z,21.18
2018-07-31T00:41:36.083Z,21.26
2018-07-31T00:42:39.434Z,21.16
2018-07-31T00:43:42.389Z,21.19
2018-07-31T00:44:45.345Z,21.22
2018-07-31T00:45:48.348Z,21.24
2018-07-31T00:46:53.766Z,21.27
2018-07-31T00:47:56.713Z,21.38
2018-07-31T00:49:00.712Z,21.39
2018-07-31T00:50:04.698Z,21.45
2018-07-31T00:51:07.619Z,21.55
2018-07-31T00:52:13.552Z,21.52
2018-07-31T00:53:17.261Z,21.51
2018-07-31T00:54:20.212Z,21.36
2018-07-31T00:55:24.322Z,21.33
2018-07-31T00:56:27.348Z,21.27
2018-07-31T00:57:30.274Z,20.78
2018-07-31T00:58:33.239Z,20.67
2018-07-31T00:59:36.201Z,20.50
2018-07-31T01:00:39.135Z,20.30
2018-07-31T01:01:42.394Z,20.38
2018-07-31T01:02:45.358Z,20.54
2018-07-31T01:03:48.323Z,20.60
2018-07-31T01:04:51.318Z,20.75
2018-07-31T01:05:54.261Z,20.66
2018-07-31T01:06:57.249Z,20.62
2018-07-31T01:08:00.636Z,20.64
2018-07-31T01:09:06.005Z,20.86
2018-07-31T01:10:08.945Z,21.09
2018-07-31T01:11:11.856Z,21.22
2018-07-31T01:12:14.775Z,21.20
2018-07-31T01:13:17.710Z,21.16
2018-07-31T01:14:21.170Z,21.16
2018-07-31T01:15:24.095Z,21.11
2018-07-31T01:16:27.045Z,20.96
2018-07-31T01:17:29.997Z,21.02
2018-07-31T01:18:33.955Z,21.00
2018-07-31T01:19:36.941Z,21.01
2018-07-31T01:20:40.290Z,20.91
2018-07-31T01:21:43.248Z,20.66
2018-07-31T01:22:46.196Z,20.43
2018-07-31T01:23:50.090Z,20.41
2018-07-31T01:24:56.999Z,20.60
2018-07-31T01:26:00.360Z,20.75
2018-07-31T01:27:03.291Z,20.93
2018-07-31T01:28:06.249Z,20.92
2018-07-31T01:29:09.196Z,20.88
2018-07-31T01:30:12.670Z,20.86
2018-07-31T01:31:16.024Z,20.88
2018-07-31T01:32:19.699Z,20.91
2018-07-31T01:33:22.638Z,20.91
2018-07-31T01:34:35.175Z,21.03
2018-07-31T01:35:38.127Z,20.99
2018-07-31T01:36:41.078Z,20.99
2018-07-31T01:37:45.704Z,20.92
2018-07-31T01:38:49.256Z,20.84
2018-07-31T01:39:53.776Z,20.71
2018-07-31T01:40:58.358Z,20.51
2018-07-31T01:42:02.424Z,20.42
2018-07-31T01:43:05.397Z,20.38
2018-07-31T01:44:08.381Z,20.49
2018-07-31T01:45:11.785Z,20.63
2018-07-31T01:46:14.943Z,20.74
2018-07-31T01:47:17.901Z,20.63
2018-07-31T01:48:20.847Z,20.61
2018-07-31T01:49:24.378Z,20.55
2018-07-31T01:50:27.338Z,20.57
2018-07-31T01:51:30.647Z,20.53
2018-07-31T01:52:33.646Z,20.41
2018-07-31T01:53:36.716Z,20.20
2018-07-31T01:54:39.686Z,20.12
2018-07-31T01:55:42.665Z,20.15
2018-07-31T01:56:45.635Z,20.21
2018-07-31T01:57:49.097Z,20.27
2018-07-31T01:58:52.078Z,20.26
2018-07-31T01:59:55.085Z,20.29
2018-07-31T02:00:58.068Z,20.41
2018-07-31T02:02:01.031Z,20.45
2018-07-31T02:03:05.663Z,20.49
2018-07-31T02:04:09.000Z,20.53
2018-07-31T02:05:11.951Z,20.41
2018-07-31T02:06:14.968Z,20.33
2018-07-31T02:07:18.018Z,20.10
2018-07-31T02:08:20.985Z,19.87
2018-07-31T02:09:23.963Z,19.91
2018-07-31T02:10:27.242Z,20.09
2018-07-31T02:11:30.192Z,20.35
2018-07-31T02:12:33.151Z,20.52
2018-07-31T02:13:36.186Z,20.58
2018-07-31T02:14:39.146Z,20.53
2018-07-31T02:15:42.129Z,20.56
2018-07-31T02:16:45.547Z,20.62
2018-07-31T02:17:48.553Z,20.65
2018-07-31T02:18:51.543Z,20.67
2018-07-31T02:19:54.473Z,20.69
2018-07-31T02:20:57.450Z,20.67
2018-07-31T02:22:00.415Z,20.65
2018-07-31T02:23:03.785Z,20.84
2018-07-31T02:24:06.743Z,20.95
2018-07-31T02:25:09.706Z,20.80
2018-07-31T02:26:12.635Z,20.61
2018-07-31T02:27:15.693Z,20.52
2018-07-31T02:28:18.877Z,20.42
2018-07-31T02:29:26.946Z,20.51
2018-07-31T02:30:29.946Z,20.52
2018-07-31T02:31:32.946Z,20.35
2018-07-31T02:32:35.910Z,20.35
2018-07-31T02:33:38.874Z,20.20
2018-07-31T02:34:41.804Z,20.15
2018-07-31T02:36:59.276Z,19.72
2018-07-31T02:38:02.285Z,19.84
2018-07-31T02:39:05.534Z,19.95
2018-07-31T02:40:08.513Z,19.86
2018-07-31T02:41:11.455Z,19.75
2018-07-31T02:42:14.764Z,19.85
2018-07-31T02:43:17.782Z,19.75
2018-07-31T02:44:20.762Z,19.67
2018-07-31T02:45:23.726Z,19.57
2018-07-31T02:46:26.826Z,19.52
2018-07-31T02:47:29.968Z,19.59
2018-07-31T02:48:33.486Z,19.72
2018-07-31T02:49:36.449Z,19.73
2018-07-31T02:50:39.413Z,19.60
2018-07-31T02:51:42.361Z,19.75
2018-07-31T02:52:45.491Z,19.86
2018-07-31T02:53:48.460Z,20.00
2018-07-31T02:54:51.872Z,20.01
2018-07-31T02:55:54.801Z,20.04
2018-07-31T02:56:57.796Z,19.92
2018-07-31T02:58:00.749Z,19.90
2018-07-31T02:59:03.819Z,19.90
2018-07-31T03:00:07.703Z,19.92
2018-07-31T03:01:10.983Z,19.91
2018-07-31T03:02:13.982Z,19.85
2018-07-31T03:03:16.923Z,19.84
2018-07-31T03:04:19.835Z,19.93
2018-07-31T03:05:22.766Z,19.98
2018-07-31T03:06:25.719Z,19.91
2018-07-31T03:07:29.028Z,19.79
2018-07-31T03:08:32.000Z,19.68
2018-07-31T03:09:35.051Z,19.68
2018-07-31T03:10:38.012Z,19.46
2018-07-31T03:11:40.972Z,19.38
2018-07-31T03:12:45.103Z,19.32
2018-07-31T03:13:48.789Z,19.39
2018-07-31T03:14:51.765Z,19.47
2018-07-31T03:15:54.769Z,19.62
2018-07-31T03:16:57.737Z,19.64
2018-07-31T03:18:00.718Z,19.66
2018-07-31T03:19:03.669Z,19.61
2018-07-31T03:20:09.709Z,19.43
2018-07-31T03:21:12.649Z,19.52
2018-07-31T03:22:15.620Z,19.61
2018-07-31T03:23:18.587Z,19.74
2018-07-31T03:24:21.547Z,19.82
2018-07-31T03:25:24.510Z,19.92
2018-07-31T03:26:27.979Z,19.84
2018-07-31T03:27:30.974Z,19.63
2018-07-31T03:28:33.939Z,19.59
2018-07-31T03:29:36.901Z,19.50
2018-07-31T03:30:39.868Z,19.48
2018-07-31T03:31:42.832Z,19.65
2018-07-31T03:32:46.211Z,19.67
2018-07-31T03:33:49.179Z,19.64
2018-07-31T03:34:52.153Z,19.60
2018-07-31T03:50:27.040Z,19.67
2018-07-31T03:51:30.468Z,19.46
2018-07-31T03:52:33.398Z,19.41
2018-07-31T03:53:36.356Z,19.40
2018-07-31T03:54:39.347Z,19.30
2018-07-31T03:55:42.299Z,19.37
2018-07-31T03:56:45.269Z,19.30
2018-07-31T03:57:49.204Z,19.42
2018-07-31T03:58:53.304Z,19.48
2018-07-31T03:59:59.200Z,19.50
2018-07-31T04:01:04.187Z,19.40
2018-07-31T04:02:07.230Z,19.34
2018-07-31T04:03:16.470Z,19.36
2018-07-31T04:04:19.455Z,19.45
2018-07-31T04:05:22.515Z,19.34
2018-07-31T04:06:25.509Z,19.24
2018-07-31T04:07:29.797Z,19.18
2018-07-31T04:08:32.744Z,19.30
2018-07-31T04:09:35.722Z,19.43
2018-07-31T04:10:38.681Z,19.50
2018-07-31T04:11:41.930Z,19.52
2018-07-31T04:12:44.897Z,19.57
2018-07-31T04:13:49.041Z,19.82
2018-07-31T04:14:51.992Z,19.99
2018-07-31T04:15:54.991Z,19.83
2018-07-31T04:16:58.534Z,19.79
2018-07-31T04:18:02.160Z,19.71
2018-07-31T04:19:05.575Z,19.68
2018-07-31T04:20:08.581Z,19.75
2018-07-31T04:21:11.505Z,19.72
2018-07-31T04:22:14.479Z,19.80
2018-07-31T04:23:17.485Z,19.79
2018-07-31T04:24:22.113Z,19.88
2018-07-31T04:25:26.689Z,19.98
2018-07-31T04:26:29.982Z,19.99
2018-07-31T04:27:32.921Z,19.97
2018-07-31T04:28:35.894Z,19.88
2018-07-31T04:29:38.881Z,19.90
2018-07-31T04:30:41.837Z,19.89
2018-07-31T04:31:47.659Z,19.73
2018-07-31T04:32:50.634Z,19.73
2018-07-31T04:33:53.632Z,19.74
2018-07-31T04:34:56.893Z,19.75
2018-07-31T04:35:59.883Z,19.59
2018-07-31T04:37:02.862Z,19.46
2018-07-31T04:38:06.241Z,19.39
2018-07-31T04:39:09.208Z,19.58
2018-07-31T04:40:12.224Z,19.78
2018-07-31T04:41:15.241Z,19.67
2018-07-31T04:42:18.319Z,19.62
2018-07-31T04:43:21.423Z,19.63
2018-07-31T04:44:25.573Z,19.74
2018-07-31T04:45:30.359Z,19.85
2018-07-31T04:46:34.390Z,19.56
2018-07-31T04:47:37.731Z,19.41
2018-07-31T04:48:41.673Z,19.39
2018-07-31T04:49:44.650Z,19.40
2018-07-31T04:50:47.917Z,19.55
2018-07-31T04:51:50.890Z,19.68
2018-07-31T04:52:54.372Z,19.69
2018-07-31T04:53:57.363Z,19.67
2018-07-31T04:55:00.933Z,19.85
2018-07-31T04:56:04.282Z,19.93
2018-07-31T04:57:07.593Z,19.95
2018-07-31T04:58:10.500Z,19.93
2018-07-31T04:59:13.659Z,19.70
2018-07-31T05:00:16.683Z,19.56
2018-07-31T05:01:19.631Z,19.55
2018-07-31T05:02:22.614Z,19.62
2018-07-31T05:03:26.117Z,19.74
2018-07-31T05:04:29.161Z,19.86
2018-07-31T05:05:32.176Z,19.80
2018-07-31T05:06:37.119Z,19.49
2018-07-31T05:07:40.823Z,19.58
2018-07-31T05:08:45.663Z,19.59
2018-07-31T05:09:49.051Z,19.81
2018-07-31T05:10:52.564Z,20.03
2018-07-31T05:11:55.563Z,20.18
2018-07-31T05:12:58.607Z,20.29
2018-07-31T05:14:01.620Z,20.42
2018-07-31T05:15:04.778Z,20.42
2018-07-31T05:16:08.716Z,20.47
2018-07-31T05:17:11.980Z,20.37
2018-07-31T05:18:15.296Z,20.28
2018-07-31T05:19:18.930Z,20.24
2018-07-31T05:20:22.202Z,20.05
2018-07-31T05:21:25.363Z,20.08
2018-07-31T05:22:28.975Z,19.97
2018-07-31T05:23:32.171Z,19.91
2018-07-31T05:24:35.344Z,19.99
2018-07-31T05:25:39.443Z,20.15
2018-07-31T05:26:42.483Z,20.40
2018-07-31T05:27:45.498Z,20.41
2018-07-31T05:28:49.047Z,20.22
2018-07-31T05:29:52.783Z,20.11
2018-07-31T05:30:55.722Z,19.95
2018-07-31T05:31:58.771Z,19.92
2018-07-31T05:33:01.763Z,19.95
2018-07-31T05:34:04.819Z,20.04
2018-07-31T05:35:08.852Z,20.08
2018-07-31T05:36:11.782Z,20.11
2018-07-31T05:37:14.889Z,20.09
2018-07-31T05:38:17.882Z,20.12
2018-07-31T05:39:20.945Z,20.29
2018-07-31T05:40:23.941Z,20.27
2018-07-31T05:41:26.935Z,20.29
2018-07-31T05:42:29.918Z,20.41
2018-07-31T05:43:32.959Z,20.49
2018-07-31T05:44:39.509Z,20.56
2018-07-31T05:45:44.688Z,20.48
2018-07-31T05:46:48.083Z,20.59
2018-07-31T05:47:51.044Z,20.65
2018-07-31T05:48:54.006Z,20.47
2018-07-31T05:49:57.020Z,20.54
2018-07-31T05:50:59.980Z,20.37
2018-07-31T05:52:03.070Z,20.39
2018-07-31T05:53:06.602Z,20.59
2018-07-31T05:54:09.549Z,20.49
2018-07-31T05:55:12.490Z,20.37
2018-07-31T05:56:16.142Z,20.37
2018-07-31T05:57:19.317Z,20.35
2018-07-31T05:58:22.594Z,20.52
2018-07-31T05:59:26.065Z,20.59
2018-07-31T06:00:29.064Z,20.64
2018-07-31T06:01:32.061Z,20.94
2018-07-31T06:02:36.807Z,20.85
2018-07-31T06:03:40.710Z,20.72
2018-07-31T06:04:43.762Z,20.60
2018-07-31T06:05:47.978Z,20.73
2018-07-31T06:06:50.998Z,20.67
2018-07-31T06:07:54.256Z,20.63
2018-07-31T06:08:57.236Z,20.67
2018-07-31T06:10:00.216Z,20.54
2018-07-31T06:11:03.234Z,20.69
2018-07-31T06:12:06.361Z,20.91
2018-07-31T06:13:09.347Z,21.04
2018-07-31T06:14:12.369Z,21.34
2018-07-31T06:15:15.396Z,21.54
2018-07-31T06:16:18.398Z,21.50
2018-07-31T06:17:21.359Z,21.44
2018-07-31T06:18:24.320Z,21.29
2018-07-31T06:19:27.315Z,21.20
2018-07-31T06:20:30.870Z,21.23
2018-07-31T06:21:33.914Z,21.23
2018-07-31T06:22:37.263Z,21.20
2018-07-31T06:23:40.840Z,21.17
2018-07-31T06:24:43.875Z,21.30
2018-07-31T06:25:46.866Z,21.38
2018-07-31T06:26:49.870Z,21.45
2018-07-31T06:27:54.874Z,21.54
2018-07-31T06:28:58.178Z,21.63
2018-07-31T06:30:01.758Z,21.63
2018-07-31T06:31:04.727Z,21.73
2018-07-31T06:32:07.700Z,21.79
2018-07-31T06:33:10.700Z,21.85
2018-07-31T06:34:13.723Z,21.78
2018-07-31T06:35:17.095Z,21.84
2018-07-31T06:36:24.667Z,22.06
2018-07-31T06:37:27.639Z,22.20
2018-07-31T06:38:30.600Z,22.31
2018-07-31T06:39:33.601Z,22.27
2018-07-31T06:40:36.626Z,22.26
2018-07-31T06:41:40.061Z,22.40
2018-07-31T06:42:43.076Z,22.55
2018-07-31T06:43:46.120Z,22.36
2018-07-31T06:44:49.290Z,22.57
2018-07-31T06:45:52.278Z,22.78
2018-07-31T06:46:56.067Z,22.94
2018-07-31T06:47:59.647Z,23.07
2018-07-31T06:49:03.664Z,23.09
2018-07-31T06:50:07.139Z,23.19
2018-07-31T06:51:10.152Z,23.15
2018-07-31T06:52:13.163Z,23.15
2018-07-31T06:53:16.235Z,23.16
2018-07-31T06:54:19.600Z,23.26
2018-07-31T06:55:22.612Z,23.38
2018-07-31T06:56:25.604Z,23.49
2018-07-31T06:57:28.629Z,23.60
2018-07-31T06:58:31.877Z,23.73
2018-07-31T06:59:34.897Z,23.89
2018-07-31T07:00:38.291Z,23.80
2018-07-31T07:01:41.389Z,23.68
2018-07-31T07:02:44.461Z,23.74
2018-07-31T07:03:47.533Z,24.03
2018-07-31T07:04:50.518Z,23.99
2018-07-31T07:05:54.539Z,24.06
2018-07-31T07:06:57.988Z,24.37
2018-07-31T07:08:01.011Z,24.49
2018-07-31T07:09:04.195Z,24.54
2018-07-31T07:10:07.886Z,24.76
2018-07-31T07:11:10.866Z,25.04
2018-07-31T07:12:14.095Z,25.11
2018-07-31T07:13:17.575Z,25.03
2018-07-31T07:14:20.563Z,25.11
2018-07-31T07:15:24.272Z,25.42
2018-07-31T07:16:28.256Z,25.62
2018-07-31T07:17:31.304Z,25.82
2018-07-31T07:18:34.853Z,25.90
2018-07-31T07:19:38.531Z,26.08
2018-07-31T07:20:41.580Z,26.19
2018-07-31T07:21:44.666Z,25.70
2018-07-31T07:22:47.674Z,25.76
2018-07-31T07:23:50.683Z,25.88
2018-07-31T07:24:53.729Z,25.97
2018-07-31T07:25:57.222Z,25.75
2018-07-31T07:27:01.985Z,25.99
2018-07-31T07:28:04.999Z,26.19
2018-07-31T07:29:08.523Z,26.53
2018-07-31T07:30:11.498Z,26.63
2018-07-31T07:31:14.782Z,26.75
2018-07-31T07:32:18.207Z,26.84
2018-07-31T07:33:21.425Z,26.88
2018-07-31T07:34:25.577Z,26.91
2018-07-31T07:35:28.552Z,27.03
2018-07-31T07:36:31.480Z,27.32
2018-07-31T07:37:35.079Z,27.42
2018-07-31T07:38:38.448Z,27.50
2018-07-31T07:39:41.435Z,27.51
2018-07-31T07:40:44.453Z,26.96
2018-07-31T07:41:47.492Z,26.93
2018-07-31T07:42:51.511Z,26.95
2018-07-31T07:43:55.330Z,26.74
2018-07-31T07:44:58.745Z,26.69
2018-07-31T07:46:02.701Z,26.63
2018-07-31T07:47:06.288Z,26.40
2018-07-31T07:48:09.276Z,26.27
2018-07-31T07:49:12.237Z,26.32
2018-07-31T07:50:15.181Z,26.52
2018-07-31T07:51:18.674Z,26.72
2018-07-31T07:52:21.883Z,26.66
2018-07-31T07:53:25.320Z,26.70
2018-07-31T07:54:31.304Z,26.76
2018-07-31T07:55:36.127Z,26.80
2018-07-31T07:56:39.558Z,26.75
2018-07-31T07:57:44.572Z,27.03
2018-07-31T07:58:48.620Z,27.02
2018-07-31T07:59:52.144Z,27.11
2018-07-31T08:00:56.703Z,27.16
2018-07-31T08:01:59.666Z,27.25
2018-07-31T08:03:02.702Z,27.52
2018-07-31T08:04:06.701Z,27.67
2018-07-31T08:05:10.008Z,27.94
2018-07-31T08:06:12.972Z,28.15
2018-07-31T08:07:16.404Z,28.22
2018-07-31T08:08:19.375Z,27.75
2018-07-31T08:09:22.372Z,27.90
2018-07-31T08:10:25.818Z,27.65
2018-07-31T08:11:28.897Z,27.69
2018-07-31T08:12:32.354Z,27.68
2018-07-31T08:13:35.363Z,27.57
2018-07-31T08:14:41.945Z,27.47
2018-07-31T08:15:45.279Z,27.72
2018-07-31T08:16:49.166Z,27.79
2018-07-31T08:17:52.895Z,27.77
2018-07-31T08:18:56.676Z,27.79
2018-07-31T08:20:01.595Z,27.71
2018-07-31T08:21:05.767Z,27.45
2018-07-31T08:22:08.721Z,27.45
2018-07-31T08:23:11.688Z,27.60
2018-07-31T08:24:14.873Z,27.46
2018-07-31T08:25:19.355Z,27.60
2018-07-31T08:26:22.323Z,27.77
2018-07-31T08:27:25.575Z,28.11
2018-07-31T08:28:29.154Z,28.56
2018-07-31T08:29:33.003Z,28.82
2018-07-31T08:30:36.578Z,28.76
2018-07-31T08:31:41.791Z,28.53
2018-07-31T08:32:47.963Z,28.80
2018-07-31T08:33:52.083Z,28.99
2018-07-31T08:34:55.881Z,28.78
2018-07-31T08:36:00.077Z,28.99
2018-07-31T08:37:03.103Z,29.35
2018-07-31T08:38:07.068Z,29.34
2018-07-31T08:39:10.648Z,29.35
2018-07-31T08:40:14.002Z,29.61
2018-07-31T08:41:17.108Z,29.76
2018-07-31T08:42:21.678Z,29.96
2018-07-31T08:43:24.691Z,29.75
2018-07-31T08:44:27.702Z,29.97
2018-07-31T08:45:30.741Z,30.15
2018-07-31T08:46:34.031Z,30.32
2018-07-31T08:47:37.091Z,30.03
2018-07-31T08:48:40.057Z,29.67
2018-07-31T08:49:43.045Z,29.59
2018-07-31T08:50:46.091Z,29.67
2018-07-31T08:51:50.095Z,29.31
2018-07-31T08:52:53.516Z,29.42
2018-07-31T08:53:56.533Z,29.79
2018-07-31T08:54:59.639Z,29.73
2018-07-31T08:56:02.848Z,29.00
2018-07-31T08:57:06.383Z,29.59
2018-07-31T08:58:10.120Z,30.07
2018-07-31T08:59:14.592Z,30.64
2018-07-31T09:00:18.786Z,30.14
2018-07-31T09:01:22.796Z,29.82
2018-07-31T09:02:25.792Z,30.06
2018-07-31T09:03:29.831Z,30.11
2018-07-31T09:04:32.858Z,30.11
2018-07-31T09:05:36.158Z,30.10
2018-07-31T09:06:40.000Z,30.45
2018-07-31T09:07:43.692Z,30.15
2018-07-31T09:08:47.626Z,30.16
2018-07-31T09:09:50.850Z,30.09
2018-07-31T09:10:54.117Z,30.30
2018-07-31T09:11:57.389Z,30.53
2018-07-31T09:13:00.325Z,30.63
2018-07-31T09:14:03.966Z,30.47
2018-07-31T09:15:07.012Z,30.22
2018-07-31T09:16:10.052Z,30.32
2018-07-31T09:17:14.388Z,30.63
2018-07-31T09:18:22.181Z,30.73
2018-07-31T09:19:25.242Z,30.63
2018-07-31T09:20:28.220Z,30.28
2018-07-31T09:21:31.478Z,29.96
2018-07-31T09:22:34.454Z,30.05
2018-07-31T09:23:39.416Z,30.50
2018-07-31T09:24:43.867Z,30.54
2018-07-31T09:25:48.098Z,30.18
2018-07-31T09:26:51.068Z,30.39
2018-07-31T09:27:54.310Z,30.59
2018-07-31T09:28:57.367Z,30.28
2018-07-31T09:30:00.404Z,30.21
2018-07-31T09:31:08.566Z,29.73
2018-07-31T09:32:13.176Z,29.71
2018-07-31T09:33:17.865Z,29.59
2018-07-31T09:34:22.110Z,29.81
2018-07-31T09:35:25.320Z,29.82
2018-07-31T09:36:29.607Z,30.02
2018-07-31T09:37:32.890Z,30.14
2018-07-31T09:38:35.903Z,30.37
2018-07-31T09:39:43.358Z,30.79
2018-07-31T09:40:47.503Z,30.77
2018-07-31T09:41:50.471Z,30.99
2018-07-31T09:42:53.473Z,30.89
2018-07-31T09:43:56.849Z,30.75
2018-07-31T09:44:59.857Z,30.49
2018-07-31T09:46:02.814Z,30.48
2018-07-31T09:47:06.029Z,30.42
2018-07-31T09:48:09.627Z,30.63
2018-07-31T10:05:49.541Z,30.59
2018-07-31T10:06:52.816Z,30.50
2018-07-31T10:07:56.470Z,30.38
2018-07-31T10:08:59.495Z,30.54
2018-07-31T10:10:03.161Z,29.98
2018-07-31T10:11:07.995Z,30.30
2018-07-31T10:12:11.150Z,30.52
2018-07-31T10:13:17.850Z,30.47
2018-07-31T10:14:20.836Z,30.41
2018-07-31T10:15:23.938Z,30.27
2018-07-31T10:16:28.090Z,30.25
2018-07-31T10:17:31.875Z,31.14
2018-07-31T10:19:46.397Z,31.48
2018-07-31T10:20:50.272Z,31.23
2018-07-31T10:21:53.449Z,31.27
2018-07-31T10:22:57.462Z,31.37
2018-07-31T10:24:01.051Z,31.17
2018-07-31T10:25:04.974Z,31.27
2018-07-31T10:26:08.248Z,30.82
2018-07-31T10:27:12.556Z,30.31
2018-07-31T10:28:15.610Z,30.46
2018-07-31T10:29:18.601Z,30.96
2018-07-31T10:30:21.985Z,31.22
2018-07-31T10:31:25.031Z,31.72
2018-07-31T10:32:28.662Z,31.31
2018-07-31T10:33:31.617Z,30.73
2018-07-31T10:34:35.080Z,31.10
2018-07-31T10:35:38.858Z,31.99
2018-07-31T10:36:45.679Z,32.25
2018-07-31T10:37:53.633Z,32.43
2018-07-31T10:38:57.929Z,31.72
2018-07-31T10:40:02.494Z,31.55
2018-07-31T10:41:05.456Z,31.75
2018-07-31T10:42:08.446Z,32.36
2018-07-31T10:43:12.757Z,31.90
2018-07-31T10:44:16.476Z,30.66
2018-07-31T10:45:19.524Z,30.91
2018-07-31T10:46:24.123Z,31.22
2018-07-31T10:47:28.577Z,30.97
2018-07-31T10:48:32.425Z,30.93
2018-07-31T10:49:37.175Z,31.26
2018-07-31T10:50:40.654Z,31.52
2018-07-31T10:51:44.391Z,31.66
2018-07-31T10:52:48.373Z,31.86
2018-07-31T10:53:53.971Z,32.06
2018-07-31T10:54:59.583Z,32.33
2018-07-31T10:56:03.925Z,32.63
2018-07-31T10:57:06.947Z,32.47
2018-07-31T10:58:10.986Z,31.63
2018-07-31T10:59:17.953Z,31.13
2018-07-31T11:00:21.623Z,31.42
2018-07-31T11:01:24.628Z,31.35
2018-07-31T11:02:28.746Z,31.22
2018-07-31T11:03:31.727Z,31.58
2018-07-31T11:04:34.766Z,31.40
2018-07-31T11:05:38.016Z,31.64
2018-07-31T11:06:41.559Z,31.71
2018-07-31T11:07:45.374Z,30.87
2018-07-31T11:08:51.845Z,30.90
2018-07-31T11:09:54.856Z,31.46
2018-07-31T11:10:58.398Z,31.30
2018-07-31T11:12:01.448Z,30.79
2018-07-31T11:13:06.934Z,30.64
2018-07-31T11:14:10.597Z,31.32
2018-07-31T11:15:14.085Z,32.17
2018-07-31T11:16:17.335Z,32.73
2018-07-31T11:17:21.304Z,32.93
2018-07-31T11:18:24.285Z,33.43
2018-07-31T11:19:27.356Z,33.31
2018-07-31T11:20:30.408Z,33.62
2018-07-31T11:21:34.526Z,33.38
2018-07-31T11:22:38.477Z,32.59
2018-07-31T11:23:41.436Z,32.79
2018-07-31T11:24:44.449Z,32.54
2018-07-31T11:25:49.016Z,32.11
2018-07-31T11:26:52.039Z,32.30
2018-07-31T11:27:56.551Z,32.37
2018-07-31T11:29:00.181Z,32.65
2018-07-31T11:30:04.773Z,33.16
2018-07-31T11:31:08.030Z,33.53
2018-07-31T11:32:11.267Z,33.37
2018-07-31T11:33:14.708Z,33.00
2018-07-31T11:34:17.686Z,33.44
2018-07-31T11:35:21.420Z,34.10
2018-07-31T11:36:25.084Z,33.62
2018-07-31T11:37:29.819Z,33.41
2018-07-31T11:38:32.901Z,33.12
2018-07-31T11:39:38.755Z,33.07
2018-07-31T11:40:41.799Z,32.99
2018-07-31T11:41:44.825Z,33.11
2018-07-31T11:42:48.476Z,33.00
2018-07-31T11:43:52.406Z,32.21
2018-07-31T11:44:55.448Z,31.64
2018-07-31T11:45:58.828Z,31.55
2018-07-31T11:47:02.706Z,31.08
2018-07-31T11:48:05.697Z,31.15
2018-07-31T11:49:09.944Z,31.98
2018-07-31T11:50:12.913Z,32.49
2018-07-31T11:51:17.222Z,32.85
2018-07-31T11:52:21.198Z,32.75
2018-07-31T11:53:24.227Z,33.08
2018-07-31T11:54:28.439Z,31.76
2018-07-31T11:55:32.369Z,31.30
2018-07-31T11:56:35.428Z,30.64
2018-07-31T11:57:38.427Z,30.41
2018-07-31T11:58:41.426Z,30.43
2018-07-31T11:59:45.302Z,30.92
2018-07-31T12:00:49.236Z,31.48
2018-07-31T12:01:52.829Z,31.32
2018-07-31T12:02:57.214Z,31.17
2018-07-31T12:04:00.462Z,31.23
2018-07-31T12:05:03.455Z,31.46
2018-07-31T12:06:09.243Z,31.61
2018-07-31T12:07:12.270Z,32.12
2018-07-31T12:08:15.798Z,32.27
2018-07-31T12:09:20.667Z,31.89
2018-07-31T12:10:23.791Z,31.46
2018-07-31T12:11:27.634Z,31.48
2018-07-31T12:12:31.043Z,31.49
2018-07-31T12:13:34.710Z,31.82
2018-07-31T12:14:37.712Z,32.07
2018-07-31T12:15:42.023Z,32.06
2018-07-31T12:16:45.107Z,31.96
2018-07-31T12:17:49.997Z,32.67
2018-07-31T12:18:53.275Z,33.04
2018-07-31T12:19:59.983Z,33.12
2018-07-31T12:21:03.004Z,32.90
2018-07-31T12:22:08.142Z,32.85
2018-07-31T12:23:12.690Z,33.04
2018-07-31T12:24:15.679Z,33.28
2018-07-31T12:25:19.453Z,32.10
2018-07-31T12:26:22.554Z,31.68
2018-07-31T12:27:26.257Z,31.20
2018-07-31T12:28:30.841Z,31.06
2018-07-31T12:29:36.937Z,31.31
2018-07-31T12:30:41.643Z,32.09
2018-07-31T12:31:44.766Z,32.41
2018-07-31T12:32:48.635Z,32.48
2018-07-31T12:33:51.613Z,32.27
2018-07-31T12:34:55.009Z,32.08
2018-07-31T12:35:59.207Z,32.42
2018-07-31T12:37:02.324Z,32.39
2018-07-31T12:38:05.319Z,32.35
2018-07-31T12:39:08.391Z,31.82
2018-07-31T12:40:11.389Z,32.54
2018-07-31T12:41:14.801Z,32.68
2018-07-31T12:42:17.864Z,32.92
2018-07-31T12:43:21.972Z,33.19
2018-07-31T12:44:25.259Z,32.97
2018-07-31T12:45:28.278Z,33.13
2018-07-31T12:46:31.675Z,33.45
2018-07-31T12:47:37.047Z,32.83
2018-07-31T12:48:40.141Z,32.19
2018-07-31T12:49:43.734Z,32.14
2018-07-31T12:50:46.741Z,32.39
2018-07-31T12:51:50.720Z,32.52
2018-07-31T12:52:54.321Z,32.63
2018-07-31T12:53:57.295Z,33.16
2018-07-31T12:55:00.320Z,32.89
2018-07-31T12:56:03.407Z,33.26
2018-07-31T12:57:07.811Z,33.48
2018-07-31T12:58:10.803Z,33.74
2018-07-31T12:59:15.114Z,33.43
2018-07-31T13:00:18.222Z,33.79
2018-07-31T13:01:21.185Z,33.10
2018-07-31T13:02:24.806Z,33.21
2018-07-31T13:03:28.639Z,32.28
2018-07-31T13:04:32.455Z,31.60
2018-07-31T13:05:35.816Z,31.54
2018-07-31T13:06:40.668Z,32.34
2018-07-31T13:07:48.038Z,32.66
2018-07-31T13:08:51.353Z,33.12
2018-07-31T13:09:55.046Z,33.74
2018-07-31T13:11:00.625Z,33.44
2018-07-31T13:12:04.767Z,33.02
2018-07-31T13:13:08.681Z,32.83
2018-07-31T13:14:12.722Z,32.54
2018-07-31T13:15:16.558Z,32.68
2018-07-31T13:16:20.410Z,32.89
2018-07-31T13:17:23.571Z,33.01
2018-07-31T13:18:27.063Z,32.94
2018-07-31T13:19:30.026Z,32.88
2018-07-31T13:20:34.191Z,32.80
2018-07-31T13:21:38.530Z,32.65
2018-07-31T13:22:41.484Z,32.50
2018-07-31T13:23:45.256Z,32.41
2018-07-31T13:24:49.232Z,32.35
2018-07-31T13:25:52.303Z,32.31
2018-07-31T13:26:56.210Z,31.88
2018-07-31T13:28:02.714Z,31.65
2018-07-31T13:29:06.505Z,31.36
2018-07-31T13:30:11.750Z,31.28
2018-07-31T13:31:16.295Z,31.25
2018-07-31T13:32:20.485Z,31.50
2018-07-31T13:33:32.195Z,31.32
2018-07-31T13:34:35.799Z,30.86
2018-07-31T13:35:39.888Z,30.64
2018-07-31T13:36:44.141Z,31.19
2018-07-31T13:37:48.214Z,31.57
2018-07-31T13:38:51.368Z,32.04
2018-07-31T13:39:54.300Z,32.39
2018-07-31T13:40:57.271Z,32.49
2018-07-31T13:42:01.943Z,32.54
2018-07-31T13:43:04.961Z,32.61
2018-07-31T13:44:08.520Z,32.78
2018-07-31T13:45:12.793Z,32.64
2018-07-31T13:46:15.772Z,32.28
2018-07-31T13:47:19.820Z,31.59
2018-07-31T13:48:23.997Z,31.72
2018-07-31T13:49:27.689Z,31.78
2018-07-31T13:50:31.154Z,32.01
2018-07-31T13:51:36.804Z,31.97
2018-07-31T13:52:40.026Z,32.22
2018-07-31T13:53:43.104Z,32.34
2018-07-31T13:54:47.096Z,32.53
2018-07-31T13:55:50.109Z,32.66
2018-07-31T13:56:53.429Z,32.28
2018-07-31T13:58:00.191Z,32.16
2018-07-31T13:59:03.584Z,32.37
2018-07-31T14:00:07.035Z,32.44
2018-07-31T14:01:12.169Z,32.07
2018-07-31T14:02:18.725Z,31.68
2018-07-31T14:03:22.858Z,31.69
2018-07-31T14:04:27.546Z,31.61
2018-07-31T14:05:30.688Z,31.45
2018-07-31T14:06:36.223Z,31.32
2018-07-31T14:07:45.662Z,31.46
2018-07-31T14:08:51.333Z,31.69
2018-07-31T14:09:55.405Z,31.70
2018-07-31T14:11:00.547Z,31.61
2018-07-31T14:12:06.517Z,31.60